Time;durP1;ratioP1;P1;durP2;ratioP2;P2;SDS_P1;SDS_P2;PMS_P1;PMS_P2;Temp;Humidity;BMP_temperature;BMP_pressure;BME280_temperature;BME280_humidity;BME280_pressure;Samples;Min_cycle;Max_cycle;Signal;HPM_P1;HPM_P2
2024/01/09 00:00:49;;;;;;;6.38;2.13;;;;;;;-2.36;85.82;103918.34;7397245;19;19986;-74
2024/01/09 00:03:17;;;;;;;4.50;1.90;;;;;;;-2.38;86.03;103909.56;7399745;19;19946;-74
2024/01/09 00:05:46;;;;;;;8.40;2.13;;;;;;;-2.43;86.21;103908.75;7397916;19;19984;-74
2024/01/09 00:08:15;;;;;;;4.07;1.95;;;;;;;-2.44;86.11;103908.75;7398342;19;19922;-75
2024/01/09 00:10:46;;;;;;;5.68;2.20;;;;;;;-2.44;86.45;103904.34;7400094;19;19946;-74
2024/01/09 00:13:14;;;;;;;6.43;1.70;;;;;;;-2.45;85.97;103907.88;7397679;19;19919;-74
2024/01/09 00:15:43;;;;;;;3.38;1.75;;;;;;;-2.43;86.31;103908.75;7397648;19;19926;-74
2024/01/09 00:18:11;;;;;;;3.50;1.42;;;;;;;-2.43;86.21;103905.22;7399138;19;19931;-74
2024/01/09 00:20:40;;;;;;;2.60;1.20;;;;;;;-2.45;86.18;103907.88;7397422;19;19939;-74
2024/01/09 00:23:09;;;;;;;2.70;1.50;;;;;;;-2.45;86.22;103901.72;7398906;19;19922;-74
2024/01/09 00:25:38;;;;;;;4.25;1.35;;;;;;;-2.46;85.98;103902.66;7397033;19;19960;-75
2024/01/09 00:28:09;;;;;;;2.50;1.48;;;;;;;-2.46;86.10;103895.56;7396883;19;20248;-75
2024/01/09 00:30:37;;;;;;;3.08;1.55;;;;;;;-2.46;86.06;103905.28;7397889;19;19955;-75
2024/01/09 00:33:07;;;;;;;4.30;1.90;;;;;;;-2.47;86.00;103904.41;7398320;19;20411;-75
2024/01/09 00:35:36;;;;;;;5.70;2.20;;;;;;;-2.48;86.24;103897.38;7396698;19;19915;-75
2024/01/09 00:38:05;;;;;;;5.80;1.60;;;;;;;-2.49;85.87;103898.25;7397660;19;19942;-75
2024/01/09 00:40:33;;;;;;;4.60;1.80;;;;;;;-2.51;86.11;103893.91;7396192;19;19936;-75
2024/01/09 00:43:02;;;;;;;3.10;1.55;;;;;;;-2.54;86.13;103902.72;7396466;19;20300;-75
2024/01/09 00:45:33;;;;;;;4.15;1.60;;;;;;;-2.55;86.11;103898.34;7396833;19;19926;-75
2024/01/09 00:48:02;;;;;;;3.40;1.45;;;;;;;-2.54;86.37;103896.56;7396798;19;19950;-75
2024/01/09 00:50:30;;;;;;;3.88;1.92;;;;;;;-2.54;86.42;103893.91;7397081;19;19933;-75
2024/01/09 00:52:59;;;;;;;2.60;1.60;;;;;;;-2.56;86.17;103896.59;7397099;19;19923;-75
2024/01/09 00:55:27;;;;;;;3.15;1.60;;;;;;;-2.58;86.13;103903.66;7394926;19;20323;-75
2024/01/09 00:57:56;;;;;;;5.93;1.80;;;;;;;-2.58;86.24;103897.50;7396833;19;19951;-75
2024/01/09 01:00:24;;;;;;;6.25;2.22;;;;;;;-2.59;86.10;103894.00;7397775;19;19957;-75
2024/01/09 01:03:16;;;;;;;4.70;1.60;;;;;;;-2.62;85.96;103899.31;7391268;19;19922;-75
2024/01/09 01:05:45;;;;;;;2.60;1.65;;;;;;;-2.63;86.24;103899.34;7395442;19;20566;-75
2024/01/09 01:08:14;;;;;;;2.97;1.60;;;;;;;-2.69;86.20;103891.47;7397737;19;19918;-75
2024/01/09 01:10:43;;;;;;;3.65;1.88;;;;;;;-2.69;86.36;103900.28;7398164;19;20299;-75
2024/01/09 01:13:11;;;;;;;3.90;1.75;;;;;;;-2.68;86.07;103903.78;7397300;19;19918;-75
2024/01/09 01:15:40;;;;;;;7.38;1.85;;;;;;;-2.72;86.49;103895.03;7397130;19;20548;-75
2024/01/09 01:18:08;;;;;;;3.83;1.73;;;;;;;-2.73;86.27;103900.31;7398001;19;19943;-75
2024/01/09 01:20:39;;;;;;;3.70;1.27;;;;;;;-2.76;86.63;103899.47;7396262;19;19926;-75
2024/01/09 01:23:08;;;;;;;3.20;1.40;;;;;;;-2.76;86.30;103896.81;7399520;19;19922;-75
2024/01/09 01:25:37;;;;;;;3.88;2.05;;;;;;;-2.75;86.58;103900.34;7394267;19;19933;-75
2024/01/09 01:28:26;;;;;;;3.30;1.90;;;;;;;-2.75;86.69;103902.97;7393482;19;19915;-75
2024/01/09 01:30:54;;;;;;;3.85;1.60;;;;;;;-2.74;86.74;103904.72;7397961;19;19930;-75
2024/01/09 01:33:23;;;;;;;2.50;1.38;;;;;;;-2.74;86.60;103899.44;7396252;19;19923;-75
2024/01/09 01:35:54;;;;;;;4.47;1.70;;;;;;;-2.75;86.62;103903.84;7395505;19;19945;-75
2024/01/09 01:38:23;;;;;;;4.22;1.85;;;;;;;-2.76;86.20;103899.47;7395582;19;20410;-74
2024/01/09 01:40:51;;;;;;;4.28;1.55;;;;;;;-2.78;86.26;103903.91;7396866;19;19918;-75
2024/01/09 01:43:20;;;;;;;2.92;1.33;;;;;;;-2.79;86.53;103894.22;7396692;19;19914;-75
2024/01/09 01:45:49;;;;;;;2.45;1.55;;;;;;;-2.78;86.47;103898.63;7398145;19;19918;-75
2024/01/09 01:48:17;;;;;;;4.28;1.48;;;;;;;-2.79;86.12;103899.50;7403723;19;19922;-75
2024/01/09 01:50:46;;;;;;;3.13;1.83;;;;;;;-2.84;86.04;103901.31;7404477;19;19935;-75
2024/01/09 01:53:17;;;;;;;2.88;1.42;;;;;;;-2.82;86.35;103899.53;7393650;19;19923;-75
2024/01/09 01:55:47;;;;;;;2.85;1.27;;;;;;;-2.82;86.45;103891.63;7392730;19;19922;-75
2024/01/09 01:58:17;;;;;;;3.00;1.50;;;;;;;-2.83;86.31;103897.78;7396803;19;19947;-75
2024/01/09 02:01:06;;;;;;;2.92;1.42;;;;;;;-2.83;86.30;103900.44;7396552;19;20259;-75
2024/01/09 02:03:35;;;;;;;6.57;1.83;;;;;;;-2.84;86.23;103897.78;7398128;19;19922;-75
2024/01/09 02:06:04;;;;;;;5.82;2.05;;;;;;;-2.85;86.28;103896.91;7397121;19;19943;-76
2024/01/09 02:08:37;;;;;;;3.72;1.30;;;;;;;-2.87;86.51;103890.81;7395778;19;19919;-76
2024/01/09 02:11:06;;;;;;;2.65;1.67;;;;;;;-2.87;86.49;103892.56;7396313;19;19949;-74
2024/01/09 02:13:35;;;;;;;4.00;1.60;;;;;;;-2.90;86.49;103892.59;7393888;19;19939;-75
2024/01/09 02:16:03;;;;;;;3.88;1.65;;;;;;;-2.91;86.50;103891.72;7394275;19;19930;-75
2024/01/09 02:18:32;;;;;;;3.17;1.33;;;;;;;-2.90;86.66;103897.88;7395431;19;19939;-75
2024/01/09 02:21:00;;;;;;;3.47;1.60;;;;;;;-2.93;86.11;103897.91;7397556;19;19923;-74
2024/01/09 02:23:29;;;;;;;2.53;1.42;;;;;;;-2.96;86.22;103896.19;7394551;19;19957;-75
2024/01/09 02:26:02;;;;;;;2.83;1.30;;;;;;;-2.96;86.50;103898.81;7396734;19;19945;-74
2024/01/09 02:28:33;;;;;;;3.75;1.65;;;;;;;-2.96;86.58;103898.81;7394938;19;19914;-75
2024/01/09 02:31:05;;;;;;;3.47;1.63;;;;;;;-2.97;86.06;103894.41;7396896;19;19922;-75
2024/01/09 02:33:34;;;;;;;4.22;1.55;;;;;;;-2.97;86.27;103891.78;7396365;19;19918;-75
2024/01/09 02:36:03;;;;;;;3.47;1.73;;;;;;;-2.98;86.18;103894.47;7394181;19;19923;-75
2024/01/09 02:38:32;;;;;;;3.97;1.80;;;;;;;-2.97;86.37;103888.28;7396109;19;19965;-75
2024/01/09 02:41:01;;;;;;;2.70;1.50;;;;;;;-3.00;85.99;103886.56;7394380;19;19949;-75
2024/01/09 02:43:29;;;;;;;4.88;1.98;;;;;;;-3.01;86.45;103894.47;7396453;19;19935;-75
2024/01/09 02:45:58;;;;;;;3.92;1.83;;;;;;;-3.02;85.98;103890.97;7393514;19;19918;-75
2024/01/09 02:48:29;;;;;;;2.28;1.33;;;;;;;-3.03;86.06;103894.50;7394897;19;19926;-75
2024/01/09 02:50:57;;;;;;;5.60;2.00;;;;;;;-3.09;86.14;103894.56;7395517;19;19934;-75
2024/01/09 02:53:26;;;;;;;6.40;1.83;;;;;;;-3.12;86.34;103891.97;7393813;19;19953;-75
2024/01/09 02:55:54;;;;;;;2.70;1.42;;;;;;;-3.13;86.43;103895.47;7393721;19;20392;-76
2024/01/09 02:58:23;;;;;;;4.65;1.30;;;;;;;-3.12;86.53;103894.59;7393402;19;19957;-75
2024/01/09 03:00:51;;;;;;;1.92;1.25;;;;;;;-3.12;86.55;103888.44;7395694;19;19950;-75
2024/01/09 03:03:20;;;;;;;3.63;1.55;;;;;;;-3.14;86.38;103901.63;7394289;19;20343;-75
2024/01/09 03:05:51;;;;;;;3.78;1.30;;;;;;;-3.15;86.29;103902.53;7394508;19;19926;-76
2024/01/09 03:08:20;;;;;;;3.92;1.95;;;;;;;-3.13;86.62;103897.25;7392679;19;19955;-76
2024/01/09 03:10:48;;;;;;;3.83;1.65;;;;;;;-3.14;86.27;103899.00;7389039;19;19956;-76
2024/01/09 03:13:17;;;;;;;6.68;2.42;;;;;;;-3.17;85.95;103899.03;7394060;19;19959;-76
2024/01/09 03:15:45;;;;;;;2.47;1.38;;;;;;;-3.22;85.88;103896.44;7396181;19;19926;-76
2024/01/09 03:18:14;;;;;;;4.30;2.03;;;;;;;-3.23;86.35;103893.81;7393917;19;20462;-75
2024/01/09 03:20:43;;;;;;;2.85;1.83;;;;;;;-3.24;86.31;103894.72;7395141;19;19926;-76
2024/01/09 03:23:14;;;;;;;3.25;1.50;;;;;;;-3.25;85.99;103893.84;7394866;19;19934;-76
2024/01/09 03:25:43;;;;;;;2.80;2.03;;;;;;;-3.29;86.30;103893.88;7397931;19;19942;-76
2024/01/09 03:28:13;;;;;;;3.50;1.70;;;;;;;-3.26;86.62;103894.72;7394828;19;20334;-76
2024/01/09 03:30:41;;;;;;;7.03;2.47;;;;;;;-3.25;85.97;103899.13;7397797;19;19934;-77
2024/01/09 03:33:10;;;;;;;2.10;1.73;;;;;;;-3.31;85.60;103891.25;7393467;19;19966;-76
2024/01/09 03:35:38;;;;;;;4.18;2.03;;;;;;;-3.33;86.07;103894.81;7392653;19;19933;-76
2024/01/09 03:38:07;;;;;;;3.97;1.58;;;;;;;-3.32;85.91;103897.41;7393027;19;19919;-77
2024/01/09 03:40:38;;;;;;;4.57;1.85;;;;;;;-3.31;85.88;103899.16;7393324;19;19918;-77
2024/01/09 03:43:07;;;;;;;5.70;1.98;;;;;;;-3.32;85.44;103891.25;7394535;19;19934;-77
2024/01/09 03:45:36;;;;;;;4.55;1.52;;;;;;;-3.39;85.53;103900.13;7391857;19;19970;-76
2024/01/09 03:48:24;;;;;;;4.60;1.88;;;;;;;-3.41;85.67;103899.28;7391260;19;20256;-76
2024/01/09 03:50:53;;;;;;;4.35;1.58;;;;;;;-3.41;85.24;103894.00;7395786;19;19949;-76
2024/01/09 03:53:22;;;;;;;2.45;1.20;;;;;;;-3.41;85.42;103888.72;7393138;19;20328;-77
2024/01/09 03:55:53;;;;;;;3.22;1.63;;;;;;;-3.43;85.34;103891.38;7393225;19;20323;-77
2024/01/09 03:58:21;;;;;;;2.78;1.60;;;;;;;-3.47;84.76;103896.69;7396249;19;19926;-77
2024/01/09 04:00:50;;;;;;;3.50;1.77;;;;;;;-3.47;85.13;103883.50;7407040;19;19922;-77
2024/01/09 04:03:18;;;;;;;2.72;2.00;;;;;;;-3.45;85.39;103885.22;7408754;19;20283;-78
2024/01/09 04:05:47;;;;;;;3.67;1.95;;;;;;;-3.46;84.69;103887.91;7400812;19;19927;-77
2024/01/09 04:08:16;;;;;;;4.70;2.17;;;;;;;-3.49;84.55;103891.41;7396050;19;19968;-77
2024/01/09 04:10:44;;;;;;;2.45;1.38;;;;;;;-3.50;84.85;103889.69;7390794;19;19930;-77
2024/01/09 04:13:15;;;;;;;3.60;1.73;;;;;;;-3.50;84.99;103889.69;7393194;19;19983;-77
2024/01/09 04:15:44;;;;;;;3.15;1.30;;;;;;;-3.52;84.74;103888.81;7393100;19;19929;-77
2024/01/09 04:18:32;;;;;;;3.70;1.85;;;;;;;-3.58;84.46;103896.75;7397384;19;20271;-77
2024/01/09 04:21:01;;;;;;;4.32;1.75;;;;;;;-3.59;84.85;103892.41;7397813;19;19927;-77
2024/01/09 04:23:30;;;;;;;3.42;1.67;;;;;;;-3.58;84.79;103895.91;7400825;19;19923;-77
2024/01/09 04:25:58;;;;;;;2.75;1.67;;;;;;;-3.56;85.21;103894.13;7397855;19;19922;-78
2024/01/09 04:28:32;;;;;;;3.53;1.80;;;;;;;-3.59;84.66;103892.41;7397783;19;19918;-78
2024/01/09 04:31:00;;;;;;;3.58;1.40;;;;;;;-3.60;84.95;103895.03;7398709;19;19923;-78
2024/01/09 04:33:29;;;;;;;3.03;1.48;;;;;;;-3.59;85.02;103899.41;7399231;19;20408;-78
2024/01/09 04:35:57;;;;;;;3.47;1.33;;;;;;;-3.57;84.99;103900.28;7398634;19;19930;-78
2024/01/09 04:38:26;;;;;;;4.50;1.88;;;;;;;-3.58;84.44;103894.13;7398090;19;19966;-78
2024/01/09 04:40:54;;;;;;;5.22;1.85;;;;;;;-3.58;84.95;103901.19;7396996;19;19957;-78
2024/01/09 04:43:23;;;;;;;5.78;2.22;;;;;;;-3.61;84.90;103898.53;7396601;19;20561;-78
2024/01/09 04:45:54;;;;;;;2.20;1.20;;;;;;;-3.58;84.97;103895.91;7395428;19;19956;-78
2024/01/09 04:48:22;;;;;;;3.72;1.55;;;;;;;-3.57;84.50;103913.44;7397123;19;19971;-78
2024/01/09 04:51:11;;;;;;;5.82;1.70;;;;;;;-3.60;84.56;103895.03;7397858;19;19911;-79
2024/01/09 04:53:40;;;;;;;2.08;1.42;;;;;;;-3.61;84.61;103906.44;7397428;19;19918;-79
2024/01/09 04:56:09;;;;;;;2.58;1.30;;;;;;;-3.62;84.85;103902.94;7398395;19;19975;-78
2024/01/09 04:58:37;;;;;;;3.97;1.73;;;;;;;-3.63;84.71;103903.84;7400198;19;19926;-79
2024/01/09 05:01:12;;;;;;;3.75;1.63;;;;;;;-3.64;84.40;103906.47;7399722;19;19941;-77
2024/01/09 05:03:46;;;;;;;5.47;1.63;;;;;;;-3.65;84.77;103905.59;7400854;19;19943;-79
2024/01/09 05:06:15;;;;;;;4.78;1.55;;;;;;;-3.69;84.49;103903.88;7400767;19;19978;-79
2024/01/09 05:08:43;;;;;;;3.22;1.60;;;;;;;-3.72;84.77;103910.06;7396586;19;19958;-78
2024/01/09 05:11:12;;;;;;;3.28;2.00;;;;;;;-3.72;84.82;103902.16;7397570;19;20323;-79
2024/01/09 05:13:40;;;;;;;3.42;1.77;;;;;;;-3.71;84.64;103905.66;7397398;19;19918;-79
2024/01/09 05:16:12;;;;;;;3.35;1.80;;;;;;;-3.70;84.53;103897.75;7398482;19;19926;-79
2024/01/09 05:18:40;;;;;;;3.55;1.85;;;;;;;-3.72;84.33;103909.19;7400235;19;19939;-79
2024/01/09 05:21:09;;;;;;;2.60;1.40;;;;;;;-3.75;84.25;103902.16;7398156;19;19934;-79
2024/01/09 05:23:37;;;;;;;3.88;1.92;;;;;;;-3.78;84.19;103903.94;7400362;19;20470;-80
2024/01/09 05:26:06;;;;;;;6.90;1.75;;;;;;;-3.81;84.31;103901.34;7402679;19;19942;-80
2024/01/09 05:28:36;;;;;;;5.13;1.90;;;;;;;-3.82;84.39;103903.09;7400348;19;19929;-79
2024/01/09 05:31:04;;;;;;;3.90;1.80;;;;;;;-3.84;84.25;103910.13;7400884;19;20323;-80
2024/01/09 05:33:36;;;;;;;4.60;2.08;;;;;;;-3.86;83.61;103908.41;7401609;19;19939;-79
2024/01/09 05:36:04;;;;;;;4.57;1.70;;;;;;;-3.86;83.71;103906.66;7399903;19;19919;-80
2024/01/09 05:38:33;;;;;;;5.50;2.00;;;;;;;-3.89;83.19;103904.03;7396671;19;20319;-79
2024/01/09 05:41:01;;;;;;;2.13;1.45;;;;;;;-3.90;83.79;103909.31;7397321;19;19923;-80
2024/01/09 05:43:30;;;;;;;3.15;1.70;;;;;;;-3.93;83.45;103912.84;7395065;19;19949;-80
2024/01/09 05:45:58;;;;;;;5.10;1.88;;;;;;;-3.94;83.43;103910.22;7398473;19;19922;-80
2024/01/09 05:48:27;;;;;;;4.13;1.60;;;;;;;-3.92;83.46;103911.94;7398226;19;19914;-81
2024/01/09 05:50:59;;;;;;;3.10;1.48;;;;;;;-3.91;83.49;103915.44;7395581;19;20370;-80
2024/01/09 05:53:27;;;;;;;3.58;1.55;;;;;;;-3.92;83.41;103913.69;7395716;19;19924;-80
2024/01/09 05:55:56;;;;;;;2.70;1.30;;;;;;;-3.92;83.23;103916.31;7396893;19;20379;-81
2024/01/09 05:58:24;;;;;;;4.22;2.03;;;;;;;-3.91;83.47;103918.09;7397203;19;19959;-80
2024/01/09 06:00:53;;;;;;;4.90;1.90;;;;;;;-3.92;83.05;103921.59;7396704;19;19919;-81
2024/01/09 06:03:21;;;;;;;5.25;1.75;;;;;;;-3.94;83.11;103919.00;7397056;19;19950;-81
2024/01/09 06:05:50;;;;;;;3.88;2.17;;;;;;;-3.99;82.86;103922.53;7398888;19;20591;-81
2024/01/09 06:08:21;;;;;;;3.80;1.83;;;;;;;-4.00;83.02;103923.41;7398778;19;19922;-81
2024/01/09 06:10:50;;;;;;;5.55;2.28;;;;;;;-3.98;82.98;103926.91;7398617;19;20252;-81
2024/01/09 06:13:18;;;;;;;3.22;1.80;;;;;;;-4.00;82.72;103932.19;7410806;19;19958;-81
2024/01/09 06:15:47;;;;;;;4.38;1.92;;;;;;;-4.03;82.96;103929.56;7425312;19;19911;-81
2024/01/09 06:18:35;;;;;;;1.42;1.33;;;;;;;-4.02;82.77;103923.44;7435707;19;19963;-80
2024/01/09 06:21:04;;;;;;;4.22;1.75;;;;;;;-4.01;82.75;103924.31;7414525;19;19927;-81
2024/01/09 06:23:35;;;;;;;3.08;1.33;;;;;;;-4.04;82.24;103924.31;7404594;19;19946;-82
2024/01/09 06:26:04;;;;;;;6.75;2.10;;;;;;;-4.05;82.21;103927.81;7400081;19;19922;-82
2024/01/09 06:28:33;;;;;;;3.90;1.88;;;;;;;-4.05;82.63;103926.06;7400132;19;20348;-82
2024/01/09 06:31:02;;;;;;;2.95;1.52;;;;;;;-4.07;82.55;103933.09;7398213;19;19919;-82
2024/01/09 06:33:31;;;;;;;3.58;1.58;;;;;;;-4.06;82.49;103937.50;7394474;19;19922;-82
2024/01/09 06:36:00;;;;;;;5.90;1.77;;;;;;;-4.03;82.81;103941.84;7396437;19;19923;-81
2024/01/09 06:38:29;;;;;;;3.13;1.77;;;;;;;-4.05;82.51;103939.22;7395207;19;19922;-82
2024/01/09 06:41:01;;;;;;;4.68;1.92;;;;;;;-4.07;82.35;103934.88;7390499;19;19974;-82
2024/01/09 06:43:29;;;;;;;4.88;2.03;;;;;;;-4.09;82.38;103941.88;7396770;19;19926;-81
2024/01/09 06:45:58;;;;;;;3.25;1.85;;;;;;;-4.10;82.57;103942.78;7398430;19;19922;-82
2024/01/09 06:48:26;;;;;;;4.63;2.00;;;;;;;-4.11;82.78;103944.53;7406097;19;19942;-81
2024/01/09 06:50:55;;;;;;;5.18;2.60;;;;;;;-4.09;82.67;103934.84;7405896;19;19946;-81
2024/01/09 06:53:24;;;;;;;6.03;2.13;;;;;;;-4.08;82.39;103941.00;7399685;19;19926;-82
2024/01/09 06:55:52;;;;;;;3.50;2.15;;;;;;;-4.09;82.23;103940.13;7395547;19;19990;-82
2024/01/09 06:58:23;;;;;;;4.43;2.03;;;;;;;-4.08;82.34;103946.28;7397748;19;19937;-81
2024/01/09 07:00:52;;;;;;;3.08;1.70;;;;;;;-4.07;82.66;103940.13;7394195;19;19982;-82
2024/01/09 07:03:41;;;;;;;3.80;1.88;;;;;;;-4.07;82.35;103935.75;7396036;19;20010;-82
2024/01/09 07:06:09;;;;;;;4.28;1.80;;;;;;;-4.11;82.14;103941.91;7396941;19;19922;-82
2024/01/09 07:08:38;;;;;;;3.05;1.70;;;;;;;-4.13;82.39;103939.28;7392593;19;19965;-82
2024/01/09 07:11:07;;;;;;;2.90;1.63;;;;;;;-4.11;82.39;103941.91;7398644;19;19944;-83
2024/01/09 07:13:38;;;;;;;5.30;2.08;;;;;;;-4.09;82.71;103940.13;7393917;19;19933;-82
2024/01/09 07:16:08;;;;;;;4.28;2.08;;;;;;;-4.10;81.95;103942.78;7397439;19;19926;-80
2024/01/09 07:18:37;;;;;;;4.85;2.58;;;;;;;-4.11;82.27;103944.53;7397227;19;19926;-89
2024/01/09 07:21:06;;;;;;;4.93;2.00;;;;;;;-4.13;81.91;103939.28;7394014;19;19975;-83
2024/01/09 07:23:35;;;;;;;5.78;2.47;;;;;;;-4.14;81.70;103944.53;7395306;19;20271;-83
2024/01/09 07:26:03;;;;;;;4.80;2.28;;;;;;;-4.15;81.69;103945.44;7396998;19;20478;-83
2024/01/09 07:28:32;;;;;;;5.72;2.33;;;;;;;-4.14;81.75;103947.16;7396362;19;19919;-83
2024/01/09 07:31:05;;;;;;;5.28;2.17;;;;;;;-4.15;81.74;103955.97;7391906;19;19922;-83
2024/01/09 07:33:34;;;;;;;4.22;1.80;;;;;;;-4.19;81.95;103957.75;7396993;19;19966;-83
2024/01/09 07:36:03;;;;;;;6.45;1.85;;;;;;;-4.20;82.19;103948.09;7396628;19;19923;-82
2024/01/09 07:38:32;;;;;;;4.55;2.28;;;;;;;-4.21;81.68;103958.63;7395990;19;19950;-83
2024/01/09 07:41:00;;;;;;;4.72;1.95;;;;;;;-4.26;81.26;103960.38;7395717;19;19933;-83
2024/01/09 07:43:49;;;;;;;6.97;2.92;;;;;;;-4.29;81.42;103966.56;7394683;19;19927;-84
2024/01/09 07:46:20;;;;;;;5.68;2.03;;;;;;;-4.30;81.53;103966.53;7397427;19;19979;-83
2024/01/09 07:48:48;;;;;;;6.20;2.70;;;;;;;-4.28;81.46;103965.69;7395796;19;20451;-83
2024/01/09 07:51:17;;;;;;;15.80;3.78;;;;;;;-4.27;81.55;103966.56;7398880;19;19942;-83
2024/01/09 07:54:06;;;;;;;24.77;7.40;;;;;;;-4.24;81.47;103967.41;7401935;19;19923;-83
2024/01/09 07:56:35;;;;;;;9.27;3.53;;;;;;;-4.21;81.52;103979.66;7399905;19;19918;-83
2024/01/09 07:59:03;;;;;;;6.28;3.17;;;;;;;-4.24;81.44;103975.31;7401386;19;19914;-83
2024/01/09 08:01:35;;;;;;;5.78;2.60;;;;;;;-4.28;81.12;103970.94;7402843;19;19925;-83
2024/01/09 08:04:06;;;;;;;3.55;1.98;;;;;;;-4.30;81.47;103972.69;7403623;19;19922;-83
2024/01/09 08:06:34;;;;;;;4.32;2.95;;;;;;;-4.30;81.42;103967.44;7408254;19;19926;-83
2024/01/09 08:09:03;;;;;;;5.88;2.63;;;;;;;-4.29;81.57;103968.31;7404867;19;19934;-82
2024/01/09 08:11:32;;;;;;;7.10;2.70;;;;;;;-4.27;81.94;103972.66;7405424;19;20011;-83
2024/01/09 08:14:00;;;;;;;5.10;2.22;;;;;;;-4.21;81.76;103984.94;7404294;19;19922;-83
2024/01/09 08:16:29;;;;;;;3.67;2.70;;;;;;;-4.17;81.70;103982.28;7403484;19;19926;-83
2024/01/09 08:19:00;;;;;;;6.38;2.47;;;;;;;-4.14;81.32;103981.38;7401372;19;19941;-83
2024/01/09 08:21:29;;;;;;;7.35;3.33;;;;;;;-4.11;81.68;103984.03;7402604;19;19946;-83
2024/01/09 08:23:57;;;;;;;6.75;2.30;;;;;;;-4.08;81.50;103986.63;7402128;19;19915;-83
2024/01/09 08:26:26;;;;;;;4.78;2.22;;;;;;;-4.03;81.59;103983.97;7401513;19;19943;-83
2024/01/09 08:28:54;;;;;;;7.93;2.88;;;;;;;-4.02;81.45;103976.09;7399957;19;19958;-83
2024/01/09 08:31:23;;;;;;;4.93;2.35;;;;;;;-3.96;81.47;103980.41;7401848;19;20415;-83
2024/01/09 08:33:52;;;;;;;6.50;2.80;;;;;;;-3.92;81.69;103976.88;7415264;19;20602;-83
2024/01/09 08:36:24;;;;;;;6.07;3.08;;;;;;;-3.88;81.85;103976.03;7406561;19;19922;-83
2024/01/09 08:38:52;;;;;;;4.82;2.60;;;;;;;-3.85;81.75;103979.50;7405249;19;19945;-83
2024/01/09 08:41:21;;;;;;;4.93;2.55;;;;;;;-3.83;81.50;103979.47;7406017;19;19957;-83
2024/01/09 08:43:49;;;;;;;5.20;2.45;;;;;;;-3.83;81.55;103980.34;7403334;19;20348;-83
2024/01/09 08:46:18;;;;;;;5.78;2.90;;;;;;;-3.80;81.21;103980.34;7400917;19;19918;-83
2024/01/09 08:48:46;;;;;;;5.53;2.40;;;;;;;-3.75;81.57;103983.81;7401950;19;19926;-83
2024/01/09 08:51:38;;;;;;;7.13;2.85;;;;;;;-3.72;81.02;103994.34;7398830;19;19972;-83
2024/01/09 08:54:07;;;;;;;3.75;2.58;;;;;;;-3.70;81.02;103982.03;7401849;19;19919;-83
2024/01/09 08:56:35;;;;;;;5.55;2.85;;;;;;;-3.69;81.15;103983.78;7402533;19;19938;-83
2024/01/09 08:59:07;;;;;;;6.03;2.70;;;;;;;-3.64;81.13;103978.50;7402107;19;20335;-83
2024/01/09 09:01:35;;;;;;;7.90;2.63;;;;;;;-3.61;80.63;103985.47;7401816;19;20630;-83
2024/01/09 09:04:04;;;;;;;6.00;2.78;;;;;;;-3.55;80.79;103981.06;7403744;19;19929;-82
2024/01/09 09:06:33;;;;;;;5.55;2.83;;;;;;;-3.50;80.32;103981.91;7404782;19;19922;-82
2024/01/09 09:09:04;;;;;;;5.60;2.60;;;;;;;-3.45;80.27;103981.88;7403467;19;20015;-82
2024/01/09 09:11:33;;;;;;;4.60;2.80;;;;;;;-3.39;80.32;103987.09;7402473;19;19915;-83
2024/01/09 09:14:01;;;;;;;4.28;2.25;;;;;;;-3.37;79.28;103982.69;7400257;19;20027;-83
2024/01/09 09:16:34;;;;;;;8.98;2.80;;;;;;;-3.33;79.15;103987.06;7399879;19;19922;-82
2024/01/09 09:19:03;;;;;;;7.68;2.75;;;;;;;-3.26;79.17;103988.75;7401511;19;20282;-83
2024/01/09 09:21:32;;;;;;;5.72;2.33;;;;;;;-3.21;78.73;103985.19;7404008;19;19923;-82
2024/01/09 09:24:01;;;;;;;5.65;2.67;;;;;;;-3.15;78.25;103984.28;7395404;19;20348;-83
2024/01/09 09:26:32;;;;;;;5.43;2.40;;;;;;;-3.12;77.92;103986.88;7400752;19;19919;-82
2024/01/09 09:29:01;;;;;;;3.40;2.03;;;;;;;-3.06;77.14;103991.25;7400544;19;19926;-83
2024/01/09 09:31:30;;;;;;;4.90;2.33;;;;;;;-3.03;77.15;103989.44;7397609;19;19950;-83
2024/01/09 09:33:59;;;;;;;3.65;2.45;;;;;;;-2.98;76.92;103987.63;7393553;19;19978;-83
2024/01/09 09:36:48;;;;;;;9.23;2.60;;;;;;;-2.91;76.74;103985.81;7396122;19;19929;-82
2024/01/09 09:39:17;;;;;;;6.28;2.35;;;;;;;-2.86;76.12;103998.06;7398548;19;19922;-82
2024/01/09 09:41:50;;;;;;;3.28;2.20;;;;;;;-2.81;75.76;103991.00;7400653;19;19919;-82
2024/01/09 09:44:21;;;;;;;6.18;2.47;;;;;;;-2.76;75.57;103989.16;7399378;19;19939;-82
2024/01/09 09:46:51;;;;;;;4.80;2.15;;;;;;;-2.73;74.86;103997.94;7398587;19;19919;-82
2024/01/09 09:49:22;;;;;;;3.72;2.10;;;;;;;-2.70;73.55;103990.88;7398873;19;19934;-82
2024/01/09 09:51:52;;;;;;;4.32;2.75;;;;;;;-2.63;74.05;103984.63;7400692;19;20274;-82
2024/01/09 09:54:23;;;;;;;4.75;2.20;;;;;;;-2.57;73.54;103994.25;7399451;19;20329;-82
2024/01/09 09:56:54;;;;;;;3.35;1.75;;;;;;;-2.55;72.92;103982.81;7398974;19;19970;-82
2024/01/09 09:59:22;;;;;;;5.00;2.20;;;;;;;-2.47;73.08;103994.16;7398910;19;19930;-82
2024/01/09 10:01:52;;;;;;;4.68;2.20;;;;;;;-2.46;72.47;103987.09;7399179;19;19940;-82
2024/01/09 10:04:31;;;;;;;5.28;2.08;;;;;;;-2.44;71.06;103995.88;7398788;19;19942;-82
2024/01/09 10:07:01;;;;;;;7.43;1.58;;;;;;;-2.40;71.28;103977.34;7399296;19;19994;-82
2024/01/09 10:09:34;;;;;;;4.00;1.80;;;;;;;-2.36;71.10;103975.53;7398942;19;19918;-82
2024/01/09 10:12:06;;;;;;;3.10;1.50;;;;;;;-2.35;69.28;103974.66;7398629;19;19935;-82
2024/01/09 10:14:35;;;;;;;3.38;1.77;;;;;;;-2.28;70.11;103982.47;7398356;19;19927;-82
2024/01/09 10:17:05;;;;;;;6.20;1.70;;;;;;;-2.23;70.72;103978.91;7403011;19;19922;-82
2024/01/09 10:19:34;;;;;;;4.20;1.73;;;;;;;-2.15;70.35;103985.81;7399931;19;19926;-83
2024/01/09 10:22:02;;;;;;;3.47;1.70;;;;;;;-2.09;70.21;103976.97;7401325;19;19926;-81
2024/01/09 10:24:31;;;;;;;3.20;1.70;;;;;;;-2.05;69.04;103971.63;7402165;19;19938;-82
2024/01/09 10:26:59;;;;;;;4.20;1.92;;;;;;;-1.99;69.56;103966.28;7399761;19;19949;-81
2024/01/09 10:29:32;;;;;;;2.78;1.75;;;;;;;-1.95;68.72;103965.34;7401491;19;20576;-81
2024/01/09 10:32:01;;;;;;;2.83;1.95;;;;;;;-1.88;69.95;103963.47;7397574;19;19981;-82
2024/01/09 10:34:30;;;;;;;6.78;2.22;;;;;;;-1.83;69.33;103953.72;7401563;19;19923;-81
2024/01/09 10:37:09;;;;;;;5.03;2.17;;;;;;;-1.74;69.01;103952.69;7399478;19;19918;-81
2024/01/09 10:39:37;;;;;;;3.33;1.92;;;;;;;-1.71;67.73;103955.28;7398012;19;19983;-82
2024/01/09 10:42:07;;;;;;;3.13;1.55;;;;;;;-1.63;68.62;103958.69;7397099;19;19929;-81
2024/01/09 10:44:40;;;;;;;3.38;1.70;;;;;;;-1.59;67.97;103957.75;7399817;19;19922;-81
2024/01/09 10:47:13;;;;;;;3.05;2.05;;;;;;;-1.55;67.52;103954.16;7398681;19;19929;-81
2024/01/09 10:49:43;;;;;;;5.28;1.77;;;;;;;-1.50;66.92;103949.66;7400366;19;19929;-81
2024/01/09 10:52:15;;;;;;;4.53;2.17;;;;;;;-1.42;68.24;103935.44;7401765;19;19930;-81
2024/01/09 10:54:44;;;;;;;2.80;1.73;;;;;;;-1.32;67.60;103935.28;7404127;19;20344;-82
2024/01/09 10:57:15;;;;;;;3.38;1.95;;;;;;;-1.22;67.86;103943.06;7404887;19;19943;-82
2024/01/09 10:59:47;;;;;;;4.53;1.98;;;;;;;-1.10;67.68;103926.09;7403168;19;19915;-80
2024/01/09 11:02:21;;;;;;;2.38;1.65;;;;;;;-1.02;66.40;103927.69;7398382;19;19922;-80
2024/01/09 11:04:50;;;;;;;3.20;1.70;;;;;;;-0.92;65.73;103923.09;7399935;19;19918;-82
2024/01/09 11:07:20;;;;;;;3.35;1.85;;;;;;;-0.79;66.19;103926.41;7397345;19;19923;-88
2024/01/09 11:09:49;;;;;;;2.67;1.45;;;;;;;-0.66;65.59;103919.97;7401002;19;19914;-91
2024/01/09 11:12:27;;;;;;;3.10;1.63;;;;;;;-0.61;64.97;103911.03;7402593;19;19937;-91
2024/01/09 11:15:05;;;;;;;2.30;1.40;;;;;;;-0.52;64.18;103902.88;7403046;19;19926;-87
2024/01/09 11:17:35;;;;;;;;;;;;;;;-0.49;59.71;103904.59;7401974;19;20339;-87
2024/01/09 11:20:07;;;;;;;3.25;1.58;;;;;;;-0.40;61.63;103899.13;7399159;19;20280;-87
2024/01/09 11:22:38;;;;;;;4.78;1.90;;;;;;;-0.34;62.18;103896.31;7400685;19;19915;-88
2024/01/09 11:25:12;;;;;;;3.65;1.63;;;;;;;-0.24;62.44;103903.19;7399589;19;19922;-87
2024/01/09 11:27:42;;;;;;;3.25;1.98;;;;;;;-0.16;62.46;103893.28;7407608;19;20287;-87
2024/01/09 11:30:18;;;;;;;3.03;1.63;;;;;;;-0.08;60.91;103893.97;7404225;19;19927;-87
2024/01/09 11:32:49;;;;;;;2.80;1.55;;;;;;;0.00;60.91;103883.22;7404785;19;20027;-89
2024/01/09 11:35:19;;;;;;;2.58;1.30;;;;;;;0.06;60.61;103879.53;7403054;19;19926;-82
2024/01/09 11:37:51;;;;;;;4.00;1.92;;;;;;;0.08;60.41;103878.63;7401873;19;19918;-82
2024/01/09 11:40:21;;;;;;;2.88;1.67;;;;;;;0.19;61.50;103881.88;7398403;19;19983;-83